Time;durP1;ratioP1;P1;durP2;ratioP2;P2;SDS_P1;SDS_P2;PMS_P1;PMS_P2;Temp;Humidity;BMP_temperature;BMP_pressure;BME280_temperature;BME280_humidity;BME280_pressure;Samples;Min_cycle;Max_cycle;Signal;HPM_P1;HPM_P2
2023/08/04 00:00:15;;;;;;;10.43;5.28;;;;;;;;;;4935255;29;20032;-76
2023/08/04 00:02:42;;;;;;;7.35;4.72;;;;;;;;;;4934989;29;20023;-72
2023/08/04 00:05:08;;;;;;;9.50;5.50;;;;;;;;;;4935096;29;20376;-75
2023/08/04 00:07:35;;;;;;;9.93;5.50;;;;;;;;;;4935023;29;20051;-76
2023/08/04 00:10:01;;;;;;;9.77;5.50;;;;;;;;;;4922783;29;20485;-77
2023/08/04 00:12:27;;;;;;;8.18;4.70;;;;;;;;;;4934906;29;20039;-71
2023/08/04 00:14:53;;;;;;;9.20;4.95;;;;;;;;;;4934701;29;20032;-77
2023/08/04 00:17:20;;;;;;;15.90;5.63;;;;;;;;;;4935105;29;20042;-79
2023/08/04 00:19:46;;;;;;;6.85;4.93;;;;;;;;;;4934954;29;20028;-78
2023/08/04 00:22:12;;;;;;;10.05;5.13;;;;;;;;;;4934809;28;20048;-77
2023/08/04 00:24:38;;;;;;;10.95;5.50;;;;;;;;;;4934474;29;20039;-76
2023/08/04 00:27:05;;;;;;;7.10;4.32;;;;;;;;;;4934694;29;20062;-77
2023/08/04 00:29:31;;;;;;;10.98;5.47;;;;;;;;;;4934903;29;20428;-78
2023/08/04 00:31:57;;;;;;;11.98;5.90;;;25.60;99.90;;;;;;4914320;29;20038;-78
2023/08/04 00:34:23;;;;;;;8.52;5.55;;;25.60;99.90;;;;;;4928017;29;20059;-76
2023/08/04 00:36:49;;;;;;;9.38;5.70;;;25.40;99.90;;;;;;4934471;29;20031;-77
2023/08/04 00:39:15;;;;;;;12.68;5.55;;;25.30;99.90;;;;;;4935035;29;20040;-77
2023/08/04 00:41:41;;;;;;;8.15;4.75;;;;;;;;;;4934513;29;20027;-78
2023/08/04 00:44:08;;;;;;;9.70;5.47;;;25.10;99.90;;;;;;4934916;29;20196;-75
2023/08/04 00:46:36;;;;;;;12.60;5.50;;;25.10;99.90;;;;;;4914142;29;20028;-73
2023/08/04 00:49:05;;;;;;;13.88;5.57;;;25.00;99.90;;;;;;4928321;29;20051;-72
2023/08/04 00:51:34;;;;;;;10.93;5.32;;;;;;;;;;4934724;29;20390;-77
2023/08/04 00:54:01;;;;;;;11.88;5.57;;;;;;;;;;4914813;29;20076;-77
2023/08/04 00:56:28;;;;;;;11.23;5.85;;;24.70;99.90;;;;;;4930714;29;20103;-77
2023/08/04 00:58:55;;;;;;;7.68;5.10;;;24.60;99.90;;;;;;4916417;29;20123;-78
2023/08/04 01:01:20;;;;;;;9.60;5.18;;;24.60;99.90;;;;;;4913866;29;20462;-73
2023/08/04 01:03:47;;;;;;;10.10;5.55;;;;;;;;;;4937459;29;20110;-77
2023/08/04 01:06:22;;;;;;;14.32;6.10;;;24.30;99.90;;;;;;4914287;29;20032;-71
2023/08/04 01:09:21;;;;;;;10.32;5.28;;;24.30;99.90;;;;;;4930136;29;20043;-78
2023/08/04 01:11:50;;;;;;;14.45;6.22;;;;;;;;;;4921992;29;20474;-76
2023/08/04 01:14:18;;;;;;;10.77;5.75;;;24.20;99.90;;;;;;4935438;29;20016;-77
2023/08/04 01:16:44;;;;;;;10.13;6.40;;;24.10;99.90;;;;;;4941471;29;20050;-77
2023/08/04 01:19:12;;;;;;;13.88;6.47;;;24.10;99.90;;;;;;4937388;29;20023;-72
2023/08/04 01:21:42;;;;;;;13.65;6.35;;;24.00;99.90;;;;;;4941507;28;20047;-75
2023/08/04 01:24:09;;;;;;;11.55;6.30;;;24.10;99.90;;;;;;4938081;29;20492;-78
2023/08/04 01:26:38;;;;;;;15.38;6.32;;;24.10;99.90;;;;;;4937776;29;20496;-78
2023/08/04 01:29:06;;;;;;;15.55;6.78;;;24.10;99.90;;;;;;4937701;29;20024;-77
2023/08/04 01:31:33;;;;;;;12.77;7.60;;;24.10;99.90;;;;;;4937534;29;20062;-72
2023/08/04 01:33:59;;;;;;;11.75;7.40;;;24.20;99.90;;;;;;4922116;29;20064;-77
2023/08/04 01:36:25;;;;;;;12.40;7.63;;;24.10;99.90;;;;;;4936628;29;20040;-78
2023/08/04 01:38:51;;;;;;;15.40;7.75;;;23.90;99.90;;;;;;4937481;29;20032;-77
2023/08/04 01:41:18;;;;;;;18.17;9.15;;;23.90;99.90;;;;;;4937654;29;20032;-75
2023/08/04 01:43:44;;;;;;;14.15;8.25;;;23.90;99.90;;;;;;4937685;29;20039;-75
2023/08/04 01:46:09;;;;;;;15.10;8.90;;;23.90;99.90;;;;;;4917423;29;20032;-77
2023/08/04 01:48:35;;;;;;;17.65;9.10;;;23.80;99.90;;;;;;4932030;29;20392;-78
2023/08/04 01:51:01;;;;;;;14.95;9.15;;;23.70;99.90;;;;;;4937361;29;20070;-77
2023/08/04 01:53:27;;;;;;;13.07;8.75;;;23.80;99.90;;;;;;4913124;29;20126;-78
2023/08/04 01:55:52;;;;;;;13.63;7.72;;;23.80;99.90;;;;;;4916928;29;20028;-75
2023/08/04 01:58:20;;;;;;;17.23;8.70;;;23.80;99.90;;;;;;4921978;29;20031;-71
2023/08/04 02:00:46;;;;;;;17.38;9.15;;;23.70;99.90;;;;;;4937694;29;20027;-77
2023/08/04 02:03:12;;;;;;;14.00;9.27;;;23.70;99.90;;;;;;4937149;29;20027;-76
2023/08/04 02:05:46;;;;;;;20.55;9.18;;;23.80;99.90;;;;;;4937467;29;20435;-77
2023/08/04 02:08:11;;;;;;;15.63;9.10;;;23.80;99.90;;;;;;4938155;29;20380;-77
2023/08/04 02:10:37;;;;;;;14.05;8.50;;;23.80;99.90;;;;;;4920097;29;20031;-77
2023/08/04 02:13:03;;;;;;;15.32;8.05;;;23.80;99.90;;;;;;4943624;29;20027;-75
2023/08/04 02:15:29;;;;;;;12.95;7.88;;;23.80;99.90;;;;;;4916516;29;20400;-76
2023/08/04 02:17:54;;;;;;;15.77;8.43;;;23.80;99.90;;;;;;4915700;29;20048;-72
2023/08/04 02:20:20;;;;;;;16.63;8.95;;;23.80;99.90;;;;;;4937250;29;20086;-78
2023/08/04 02:22:47;;;;;;;15.57;8.88;;;23.90;99.90;;;;;;4924127;29;20543;-76
2023/08/04 02:25:13;;;;;;;14.40;8.35;;;23.80;99.90;;;;;;4896968;29;20047;-72
2023/08/04 02:27:39;;;;;;;16.15;8.30;;;23.80;99.90;;;;;;4900985;29;20032;-75
2023/08/04 02:30:05;;;;;;;17.20;8.65;;;23.80;99.90;;;;;;4917873;29;20484;-77
2023/08/04 02:32:31;;;;;;;14.80;8.70;;;23.60;99.90;;;;;;4917993;29;20044;-77
2023/08/04 02:34:57;;;;;;;17.10;9.60;;;23.50;99.90;;;;;;4914123;29;20481;-77
2023/08/04 02:37:23;;;;;;;18.10;10.15;;;;;;;;;;4888615;29;20040;-72
2023/08/04 02:39:49;;;;;;;20.05;10.18;;;;;;;;;;4914721;29;20032;-77
2023/08/04 02:42:15;;;;;;;16.58;9.52;;;23.30;99.90;;;;;;4917758;29;20035;-77
2023/08/04 02:44:41;;;;;;;14.77;8.05;;;23.30;99.90;;;;;;4916988;29;20035;-77
2023/08/04 02:47:07;;;;;;;12.18;8.00;;;;;;;;;;4917800;29;20028;-77
2023/08/04 02:49:33;;;;;;;13.85;6.90;;;23.10;99.90;;;;;;4917347;29;20433;-75
2023/08/04 02:51:58;;;;;;;15.85;7.72;;;23.20;99.90;;;;;;4898440;29;20044;-76
2023/08/04 02:54:24;;;;;;;14.25;7.28;;;23.10;99.90;;;;;;4922293;29;20024;-76
2023/08/04 02:56:50;;;;;;;14.05;7.00;;;23.00;99.90;;;;;;4900125;29;20035;-76
2023/08/04 02:59:16;;;;;;;13.88;7.47;;;23.00;99.90;;;;;;4917432;29;20036;-77
2023/08/04 03:01:42;;;;;;;9.80;6.53;;;23.00;99.90;;;;;;4917054;29;20108;-76
2023/08/04 03:04:07;;;;;;;11.27;6.85;;;23.00;99.90;;;;;;4915004;29;20484;-77
2023/08/04 03:06:33;;;;;;;15.45;6.90;;;22.90;99.90;;;;;;4909648;29;20460;-77
2023/08/04 03:08:59;;;;;;;14.13;6.40;;;22.90;99.90;;;;;;4909007;29;20076;-74
2023/08/04 03:11:25;;;;;;;11.50;7.07;;;22.80;99.90;;;;;;4916956;29;20044;-77
2023/08/04 03:13:51;;;;;;;14.68;7.30;;;22.90;99.90;;;;;;4904984;29;20434;-77
2023/08/04 03:16:16;;;;;;;11.88;6.97;;;22.90;99.90;;;;;;4916692;29;20492;-78
2023/08/04 03:18:42;;;;;;;13.35;7.00;;;22.90;99.90;;;;;;4916683;29;20400;-71
2023/08/04 03:21:08;;;;;;;12.52;7.18;;;22.90;99.90;;;;;;4916661;29;20024;-75
2023/08/04 03:23:34;;;;;;;18.63;7.65;;;22.90;99.90;;;;;;4914117;29;20060;-76
2023/08/04 03:26:00;;;;;;;13.30;7.53;;;22.90;99.90;;;;;;4915678;29;20026;-74
2023/08/04 03:28:25;;;;;;;10.95;6.25;;;22.90;99.90;;;;;;4915933;29;20039;-71
2023/08/04 03:30:51;;;;;;;13.38;6.75;;;23.00;99.90;;;;;;4915848;29;20032;-77
2023/08/04 03:33:18;;;;;;;12.02;6.80;;;22.90;99.90;;;;;;4915692;29;20036;-78
2023/08/04 03:35:44;;;;;;;12.93;7.30;;;23.00;99.90;;;;;;4915546;29;20021;-78
2023/08/04 03:38:11;;;;;;;15.50;7.63;;;22.90;99.90;;;;;;4915359;29;20028;-72
2023/08/04 03:40:40;;;;;;;11.70;6.35;;;22.90;99.90;;;;;;4915723;29;20020;-77
2023/08/04 03:43:06;;;;;;;14.68;6.90;;;22.90;99.90;;;;;;4915680;29;20059;-73
2023/08/04 03:45:32;;;;;;;17.25;6.75;;;22.90;99.90;;;;;;4915397;29;20496;-76
2023/08/04 03:47:58;;;;;;;14.63;7.32;;;22.90;99.90;;;;;;4915576;29;20028;-78
2023/08/04 03:50:25;;;;;;;10.35;7.25;;;23.20;99.90;;;;;;4915494;29;20361;-78
2023/08/04 03:52:51;;;;;;;17.63;7.43;;;23.30;99.90;;;;;;4917043;29;20032;-78
2023/08/04 03:55:17;;;;;;;9.77;6.03;;;23.60;99.90;;;;;;4908810;29;20477;-77
2023/08/04 03:57:43;;;;;;;17.70;7.68;;;24.00;99.90;;;;;;4909244;29;20095;-78
2023/08/04 04:00:09;;;;;;;12.07;7.60;;;24.30;99.90;;;;;;4903086;29;20032;-77
2023/08/04 04:02:39;;;;;;;17.30;7.95;;;24.80;99.90;;;;;;4903405;29;20104;-79
2023/08/04 04:05:05;;;;;;;17.05;7.25;;;25.20;99.90;;;;;;4909596;29;20034;-76
2023/08/04 04:07:31;;;;;;;13.13;6.90;;;25.50;99.90;;;;;;4921975;29;20025;-78
2023/08/04 04:09:56;;;;;;;23.77;10.02;;;26.10;99.90;;;;;;4915358;29;20059;-72
2023/08/04 04:12:22;;;;;;;23.42;8.38;;;26.50;99.90;;;;;;4915214;29;20036;-78
2023/08/04 04:14:48;;;;;;;15.65;8.10;;;27.10;99.90;;;;;;4915560;29;20490;-76
2023/08/04 04:17:14;;;;;;;15.25;7.50;;;27.70;99.90;;;;;;4915279;29;20435;-78
2023/08/04 04:19:40;;;;;;;10.45;5.78;;;28.20;99.90;;;;;;4915476;29;20100;-78
2023/08/04 04:22:08;;;;;;;18.17;7.68;;;28.80;99.90;;;;;;4869433;29;1168314;-74
2023/08/04 04:24:34;;;;;;;20.90;7.00;;;;;;;;;;4915938;29;20028;-77
2023/08/04 04:27:00;;;;;;;10.02;5.28;;;;;;;;;;4915607;29;20168;-71
2023/08/04 04:29:27;;;;;;;12.68;6.10;;;;;;;;;;4916023;29;20031;-74
2023/08/04 04:31:52;;;;;;;8.40;5.57;;;30.40;97.50;;;;;;4915657;29;20392;-78
2023/08/04 04:34:18;;;;;;;13.18;6.55;;;30.40;98.70;;;;;;4915780;29;20028;-78
2023/08/04 04:36:44;;;;;;;11.48;6.35;;;30.90;99.50;;;;;;4915923;29;20024;-72
2023/08/04 04:39:12;;;;;;;9.93;6.50;;;31.20;98.60;;;;;;4915624;29;20024;-78
2023/08/04 04:41:38;;;;;;;11.05;6.00;;;31.00;95.10;;;;;;4915749;29;20028;-77
2023/08/04 04:44:04;;;;;;;10.95;6.50;;;31.60;95.80;;;;;;4915810;29;20024;-79
2023/08/04 04:46:30;;;;;;;11.05;6.40;;;31.60;95.90;;;;;;4901120;29;20046;-72
2023/08/04 04:48:56;;;;;;;10.93;6.05;;;32.30;98.60;;;;;;4902186;29;20059;-74
2023/08/04 04:51:22;;;;;;;12.82;6.53;;;32.50;97.30;;;;;;4909191;29;20042;-79
2023/08/04 04:53:48;;;;;;;15.60;7.30;;;33.20;96.40;;;;;;4926950;29;20032;-72
2023/08/04 04:56:14;;;;;;;17.10;6.97;;;32.90;98.10;;;;;;4923802;29;20043;-76
2023/08/04 04:58:40;;;;;;;13.43;6.05;;;33.50;96.20;;;;;;4919318;29;20028;-78
2023/08/04 05:01:09;;;;;;;11.07;6.07;;;;;;;;;;4919246;29;20028;-76
2023/08/04 05:03:36;;;;;;;11.88;5.93;;;;;;;;;;4919544;29;20028;-79
2023/08/04 05:06:02;;;;;;;9.88;5.35;;;;;;;;;;4918997;29;20384;-79
2023/08/04 05:08:28;;;;;;;12.90;5.60;;;34.80;93.80;;;;;;4929426;29;20488;-73
2023/08/04 05:10:54;;;;;;;14.18;5.90;;;33.90;92.70;;;;;;4919057;29;20028;-72
2023/08/04 05:13:20;;;;;;;14.05;6.30;;;33.00;99.90;;;;;;4919495;29;20115;-79
2023/08/04 05:15:47;;;;;;;16.23;6.10;;;32.00;99.90;;;;;;4918852;29;20044;-72
2023/08/04 05:18:13;;;;;;;14.35;6.32;;;30.80;95.20;;;;;;4919138;29;20032;-78
2023/08/04 05:20:39;;;;;;;13.30;6.05;;;;;;;;;;4918965;29;20035;-73
2023/08/04 05:23:05;;;;;;;12.55;5.50;;;30.60;94.80;;;;;;4918689;29;20092;-73
2023/08/04 05:25:31;;;;;;;13.23;6.60;;;;;;;;;;4919383;29;20076;-72
2023/08/04 05:28:30;;;;;;;10.88;6.32;;;30.40;93.90;;;;;;4918699;29;20032;-79
2023/08/04 05:31:01;;;;;;;16.00;6.47;;;29.90;93.40;;;;;;4918688;29;20071;-72
2023/08/04 05:33:27;;;;;;;11.15;6.18;;;30.00;93.40;;;;;;4918995;29;20028;-72
2023/08/04 05:35:53;;;;;;;14.73;6.53;;;30.10;93.30;;;;;;4924353;29;20019;-75
2023/08/04 05:38:20;;;;;;;14.63;6.25;;;30.10;93.20;;;;;;4920077;29;20408;-74
2023/08/04 05:40:48;;;;;;;11.32;6.25;;;30.10;94.40;;;;;;4918543;29;20024;-79
2023/08/04 05:43:14;;;;;;;12.57;6.15;;;30.10;94.60;;;;;;4918656;29;20040;-72
2023/08/04 05:45:42;;;;;;;12.55;6.03;;;30.10;94.00;;;;;;4922464;29;20482;-73
2023/08/04 05:48:08;;;;;;;11.65;5.90;;;30.00;96.00;;;;;;4918576;29;20038;-78
2023/08/04 05:50:34;;;;;;;11.75;6.45;;;29.60;95.20;;;;;;4918499;29;20024;-73
2023/08/04 05:53:00;;;;;;;13.98;6.72;;;29.80;94.60;;;;;;4918202;29;20127;-77
2023/08/04 05:55:26;;;;;;;16.58;6.65;;;29.90;94.30;;;;;;4918859;29;20040;-77
2023/08/04 05:57:52;;;;;;;9.30;5.85;;;29.90;94.40;;;;;;4918295;29;20118;-79
2023/08/04 06:00:18;;;;;;;13.20;6.00;;;30.10;95.70;;;;;;4918086;29;20047;-71
2023/08/04 06:02:45;;;;;;;13.63;6.30;;;30.20;94.60;;;;;;4918139;29;20451;-75
2023/08/04 06:05:12;;;;;;;15.20;6.78;;;30.40;93.80;;;;;;4919818;29;20520;-78
2023/08/04 06:07:39;;;;;;;18.20;7.25;;;30.60;96.20;;;;;;4904043;29;20028;-71
2023/08/04 06:10:05;;;;;;;16.90;7.35;;;30.50;95.40;;;;;;4907872;29;20024;-78
2023/08/04 06:12:31;;;;;;;14.43;6.72;;;30.70;97.10;;;;;;4911282;29;20028;-73
2023/08/04 06:14:57;;;;;;;13.13;5.80;;;30.60;97.20;;;;;;4919764;29;20020;-71
2023/08/04 06:17:23;;;;;;;12.68;5.82;;;30.60;96.90;;;;;;4918414;29;20051;-71
2023/08/04 06:19:49;;;;;;;11.35;5.95;;;30.50;95.00;;;;;;4917563;29;20051;-77
2023/08/04 06:22:15;;;;;;;9.73;5.97;;;30.30;94.80;;;;;;4916721;28;20968;-77
2023/08/04 06:24:41;;;;;;;21.95;7.45;;;30.60;94.40;;;;;;4917247;29;20111;-72
2023/08/04 06:27:08;;;;;;;18.60;7.20;;;30.20;94.20;;;;;;4917483;29;20072;-77
2023/08/04 06:29:34;;;;;;;17.45;7.95;;;30.30;95.60;;;;;;4917861;29;20067;-79
2023/08/04 06:32:01;;;;;;;13.10;6.32;;;30.30;95.50;;;;;;4902648;29;20039;-80
2023/08/04 06:34:27;;;;;;;16.92;7.03;;;30.30;94.50;;;;;;4917340;29;20065;-72
2023/08/04 06:36:53;;;;;;;11.23;6.55;;;30.30;94.30;;;;;;4917753;29;20055;-77
2023/08/04 06:39:19;;;;;;;10.73;6.20;;;30.60;95.00;;;;;;4917515;29;20501;-72
2023/08/04 06:41:44;;;;;;;10.95;5.85;;;30.70;94.50;;;;;;4917482;29;20481;-78
2023/08/04 06:44:13;;;;;;;10.40;5.82;;;31.00;94.20;;;;;;4916805;29;20155;-78
2023/08/04 06:46:39;;;;;;;11.40;6.13;;;30.90;94.50;;;;;;4916954;29;20036;-72
2023/08/04 06:49:04;;;;;;;10.63;5.57;;;31.00;93.60;;;;;;4917762;29;20035;-79
2023/08/04 06:51:30;;;;;;;13.10;6.43;;;31.00;94.10;;;;;;4916649;29;20432;-77
2023/08/04 06:53:56;;;;;;;12.18;6.75;;;30.90;94.40;;;;;;4916719;29;20477;-77
2023/08/04 06:56:22;;;;;;;11.63;5.80;;;31.30;93.30;;;;;;4917041;29;20047;-72
2023/08/04 06:58:49;;;;;;;13.40;6.13;;;31.30;93.90;;;;;;4916993;29;20064;-78
2023/08/04 07:01:15;;;;;;;10.30;5.88;;;31.50;92.70;;;;;;4916839;29;20025;-76
2023/08/04 07:03:44;;;;;;;8.38;5.75;;;31.50;92.90;;;;;;4916780;29;20039;-78
2023/08/04 07:06:10;;;;;;;15.05;5.95;;;31.30;92.60;;;;;;4917079;29;20032;-79
2023/08/04 07:08:36;;;;;;;18.90;6.22;;;31.10;93.80;;;;;;4928972;29;20108;-72
2023/08/04 07:11:02;;;;;;;10.77;5.55;;;31.20;93.10;;;;;;4915612;29;20465;-77
2023/08/04 07:13:29;;;;;;;12.85;6.50;;;31.20;93.40;;;;;;4916748;29;20096;-73
2023/08/04 07:15:59;;;;;;;11.63;5.95;;;31.10;93.30;;;;;;4916876;29;20028;-76
2023/08/04 07:18:25;;;;;;;12.85;7.43;;;31.30;93.10;;;;;;4917826;29;20031;-78
2023/08/04 07:20:51;;;;;;;9.65;6.43;;;31.30;93.50;;;;;;4916767;29;20146;-71
2023/08/04 07:23:17;;;;;;;16.98;7.28;;;31.50;93.40;;;;;;4904937;29;20441;-71
2023/08/04 07:25:43;;;;;;;13.02;6.57;;;31.80;93.30;;;;;;4894926;29;20040;-78
2023/08/04 07:28:09;;;;;;;12.18;6.43;;;31.90;91.80;;;;;;4908512;29;20540;-72
2023/08/04 07:30:37;;;;;;;12.02;6.10;;;31.90;92.90;;;;;;4916867;29;20388;-77
2023/08/04 07:33:06;;;;;;;17.10;6.88;;;31.90;91.40;;;;;;4906389;29;20502;-78
2023/08/04 07:35:33;;;;;;;12.90;6.07;;;31.80;91.00;;;;;;4912834;29;20032;-72
2023/08/04 07:37:59;;;;;;;9.90;5.60;;;31.70;91.30;;;;;;4911966;29;20036;-72
2023/08/04 07:40:25;;;;;;;13.10;5.78;;;31.90;91.10;;;;;;4900822;29;20032;-71
2023/08/04 07:42:50;;;;;;;11.85;5.40;;;32.00;91.80;;;;;;4907936;29;20035;-72
2023/08/04 07:45:16;;;;;;;13.32;5.80;;;32.20;93.70;;;;;;4921144;29;20032;-71
2023/08/04 07:47:42;;;;;;;19.38;6.72;;;32.10;92.90;;;;;;4912239;29;20072;-78
2023/08/04 07:50:09;;;;;;;16.42;5.85;;;;;;;;;;4909880;29;20036;-74
2023/08/04 07:52:35;;;;;;;13.10;6.35;;;32.30;91.40;;;;;;4903473;29;20036;-71
2023/08/04 07:55:01;;;;;;;9.20;5.25;;;;;;;;;;4914536;29;20036;-73
2023/08/04 07:57:27;;;;;;;10.80;5.53;;;32.40;89.10;;;;;;4915926;29;20044;-71
2023/08/04 07:59:52;;;;;;;9.63;5.35;;;32.30;92.30;;;;;;4916167;29;20028;-72
2023/08/04 08:02:19;;;;;;;11.30;5.30;;;;;;;;;;4916000;29;20040;-72
2023/08/04 08:04:44;;;;;;;15.20;6.15;;;32.50;92.00;;;;;;4916445;29;20487;-76
2023/08/04 08:07:10;;;;;;;10.20;5.63;;;32.80;91.70;;;;;;4915948;29;20036;-76
2023/08/04 08:09:36;;;;;;;12.25;5.75;;;33.00;92.60;;;;;;4916716;29;20024;-76
2023/08/04 08:12:02;;;;;;;13.68;6.57;;;33.00;95.20;;;;;;4900801;29;20047;-72
2023/08/04 08:14:28;;;;;;;14.18;6.38;;;32.90;90.70;;;;;;4916350;29;20172;-76
2023/08/04 08:16:54;;;;;;;12.07;6.15;;;33.00;90.20;;;;;;4915575;29;20032;-78
2023/08/04 08:19:19;;;;;;;13.77;5.65;;;33.00;90.80;;;;;;4915873;29;20111;-78
2023/08/04 08:21:45;;;;;;;10.82;6.00;;;33.30;93.40;;;;;;4915814;29;20381;-79
2023/08/04 08:24:11;;;;;;;13.07;6.13;;;33.20;91.10;;;;;;4915980;29;20024;-78
2023/08/04 08:26:37;;;;;;;13.35;5.47;;;33.30;91.40;;;;;;4916182;29;20367;-78
2023/08/04 08:29:03;;;;;;;15.57;6.22;;;33.40;94.00;;;;;;4915395;29;20056;-71
2023/08/04 08:31:29;;;;;;;10.38;6.22;;;33.60;91.30;;;;;;4894584;29;20064;-73
2023/08/04 08:33:54;;;;;;;17.88;5.82;;;33.60;90.50;;;;;;4915605;29;20024;-77
2023/08/04 08:36:20;;;;;;;15.40;6.22;;;33.50;89.40;;;;;;4915880;29;20111;-76
2023/08/04 08:38:46;;;;;;;14.68;5.68;;;33.50;86.90;;;;;;4915695;29;20107;-72
2023/08/04 08:41:13;;;;;;;14.82;5.90;;;33.70;87.90;;;;;;4915409;29;20035;-75
2023/08/04 08:43:40;;;;;;;21.55;6.10;;;33.50;90.30;;;;;;4915570;29;20080;-73
2023/08/04 08:46:07;;;;;;;15.40;6.07;;;33.50;90.50;;;;;;4915899;29;20034;-72
2023/08/04 08:48:37;;;;;;;13.57;5.60;;;33.80;88.90;;;;;;4915202;29;20567;-73
2023/08/04 08:51:11;;;;;;;14.55;5.93;;;33.60;89.50;;;;;;4897109;29;20053;-73
2023/08/04 08:53:39;;;;;;;16.15;5.95;;;;;;;;;;4904555;29;20040;-75
2023/08/04 08:56:07;;;;;;;11.32;6.28;;;33.90;88.40;;;;;;4907524;29;20031;-72
2023/08/04 08:58:34;;;;;;;13.52;5.40;;;33.90;90.70;;;;;;4908829;29;20047;-73
2023/08/04 09:01:00;;;;;;;12.18;5.93;;;34.00;88.80;;;;;;4914985;29;20052;-78
2023/08/04 09:03:27;;;;;;;13.50;5.47;;;34.00;89.20;;;;;;4915694;29;20024;-75
2023/08/04 09:05:53;;;;;;;15.38;5.80;;;33.90;91.00;;;;;;4915169;29;20095;-71
2023/08/04 09:08:19;;;;;;;13.32;4.72;;;33.90;91.00;;;;;;4915340;29;20032;-72
2023/08/04 09:10:47;;;;;;;8.95;4.03;;;33.50;91.80;;;;;;4915330;29;20040;-77
2023/08/04 09:13:14;;;;;;;9.02;4.30;;;33.50;91.00;;;;;;4914418;29;20032;-76
2023/08/04 09:16:00;;;;;;;11.63;5.05;;;33.50;89.60;;;;;;4911031;29;20035;-79
2023/08/04 09:18:27;;;;;;;9.50;4.45;;;33.50;91.20;;;;;;4911325;29;20099;-77
2023/08/04 09:21:08;;;;;;;11.48;5.07;;;33.80;92.20;;;;;;4895275;29;20029;-78
2023/08/04 09:23:52;;;;;;;9.95;5.18;;;33.70;90.00;;;;;;4914361;29;20187;-71
2023/08/04 09:26:18;;;;;;;10.93;5.90;;;33.90;93.30;;;;;;4915011;29;20039;-78
2023/08/04 09:28:44;;;;;;;11.63;6.15;;;33.90;91.90;;;;;;4915369;29;20469;-78
2023/08/04 09:31:12;;;;;;;10.13;6.40;;;33.80;92.40;;;;;;4915359;29;20036;-78
2023/08/04 09:33:44;;;;;;;12.38;6.00;;;33.80;93.70;;;;;;4915080;29;20396;-76
2023/08/04 09:36:12;;;;;;;13.00;5.85;;;34.00;92.40;;;;;;4918802;29;20020;-78
2023/08/04 09:38:39;;;;;;;8.63;5.20;;;34.10;92.50;;;;;;4918543;29;20035;-77
2023/08/04 09:41:07;;;;;;;10.02;5.10;;;33.90;92.40;;;;;;4918716;29;20132;-72
2023/08/04 09:43:34;;;;;;;12.48;5.95;;;33.90;92.40;;;;;;4918467;29;20024;-79
2023/08/04 09:46:05;;;;;;;12.27;6.03;;;33.70;93.00;;;;;;4919106;29;20028;-74
2023/08/04 09:48:31;;;;;;;10.65;5.88;;;33.70;92.00;;;;;;4918747;29;20031;-74
2023/08/04 09:51:12;;;;;;;12.70;4.82;;;33.70;92.70;;;;;;4918273;29;20028;-79
2023/08/04 09:53:48;;;;;;;12.63;5.88;;;33.90;91.10;;;;;;4918671;29;20028;-76
2023/08/04 09:56:18;;;;;;;11.27;6.22;;;33.80;92.80;;;;;;4917876;29;20119;-77
2023/08/04 09:58:45;;;;;;;10.65;5.85;;;33.80;92.30;;;;;;4917954;29;20033;-73
2023/08/04 10:01:13;;;;;;;10.20;5.80;;;33.90;91.90;;;;;;4918582;29;20039;-77
2023/08/04 10:03:45;;;;;;;13.25;6.13;;;33.90;90.70;;;;;;4918088;29;20519;-72
2023/08/04 10:06:11;;;;;;;16.48;6.28;;;33.90;90.60;;;;;;4918312;29;20087;-78
2023/08/04 10:08:40;;;;;;;12.20;6.00;;;33.90;90.50;;;;;;4918030;29;20047;-72
2023/08/04 10:11:07;;;;;;;11.32;5.25;;;33.90;92.10;;;;;;4918034;29;20040;-73
2023/08/04 10:13:37;;;;;;;12.18;5.75;;;33.90;91.90;;;;;;4913495;29;20032;-77
2023/08/04 10:16:08;;;;;;;11.85;6.18;;;34.00;91.20;;;;;;4910906;29;20526;-73
2023/08/04 10:18:49;;;;;;;12.02;6.18;;;33.70;95.20;;;;;;4898485;29;20370;-77
2023/08/04 10:21:22;;;;;;;;;;;33.60;99.90;;;;;;4913641;29;20088;-72
2023/08/04 10:23:51;;;;;;;8.73;5.20;;;33.70;92.30;;;;;;4917982;29;19957;-75
2023/08/04 10:26:17;;;;;;;10.50;5.00;;;33.70;95.30;;;;;;4917702;29;20060;-78
2023/08/04 10:29:01;;;;;;;9.40;4.95;;;33.90;99.90;;;;;;4918102;29;20060;-72
2023/08/04 10:31:55;;;;;;;8.82;4.60;;;33.80;89.10;;;;;;4917565;29;20481;-77
2023/08/04 10:34:27;;;;;;;9.13;4.68;;;33.70;88.20;;;;;;4918474;29;20528;-72
2023/08/04 10:37:17;;;;;;;7.07;5.03;;;33.60;87.00;;;;;;4917681;29;20270;-71
2023/08/04 10:39:57;;;;;;;15.85;5.95;;;33.90;89.40;;;;;;4822830;29;20034;-77
2023/08/04 10:42:26;;;;;;;20.67;6.60;;;33.90;92.20;;;;;;4822893;29;20049;-74
2023/08/04 10:44:54;;;;;;;12.75;5.97;;;33.90;90.90;;;;;;4822396;29;20035;-78
2023/08/04 10:47:41;;;;;;;12.90;6.47;;;33.90;91.30;;;;;;4821973;29;20095;-78
2023/08/04 10:50:07;;;;;;;12.90;5.38;;;33.70;90.20;;;;;;4823441;29;20046;-73
2023/08/04 10:52:34;;;;;;;11.52;5.57;;;33.80;90.20;;;;;;4807771;29;20046;-75
2023/08/04 10:55:02;;;;;;;12.50;5.82;;;33.90;90.30;;;;;;4822469;29;20026;-79
2023/08/04 10:57:32;;;;;;;11.23;5.90;;;33.90;90.40;;;;;;4823968;29;20062;-71
2023/08/04 10:59:58;;;;;;;7.90;5.63;;;34.00;90.50;;;;;;4822681;29;20038;-78
2023/08/04 11:02:25;;;;;;;12.05;5.68;;;33.90;99.90;;;;;;4822807;29;20114;-79
2023/08/04 11:04:52;;;;;;;7.55;4.72;;;33.90;99.90;;;;;;4823160;29;20629;-75
2023/08/04 11:07:19;;;;;;;7.20;4.75;;;33.70;99.90;;;;;;4823952;29;20449;-73
2023/08/04 11:09:46;;;;;;;8.13;5.30;;;33.90;99.90;;;;;;4822350;29;20035;-79
2023/08/04 11:12:13;;;;;;;8.82;5.50;;;33.90;91.70;;;;;;4822754;29;20049;-72
2023/08/04 11:14:39;;;;;;;9.73;5.78;;;33.80;99.10;;;;;;4822942;29;20038;-76
2023/08/04 11:17:15;;;;;;;12.20;5.68;;;33.50;99.90;;;;;;4885733;29;20041;-77
2023/08/04 11:19:46;;;;;;;10.07;5.45;;;33.70;99.90;;;;;;4917917;29;20028;-79
2023/08/04 11:22:14;;;;;;;11.50;6.20;;;33.90;90.60;;;;;;4916943;29;20063;-78
2023/08/04 11:24:41;;;;;;;9.80;5.22;;;33.80;90.10;;;;;;4917357;29;20032;-79
2023/08/04 11:27:09;;;;;;;10.20;5.40;;;34.10;91.40;;;;;;4916494;29;20042;-79
2023/08/04 11:29:35;;;;;;;13.40;6.18;;;34.10;89.80;;;;;;4917228;29;20028;-80
2023/08/04 11:32:08;;;;;;;9.05;6.07;;;34.10;89.80;;;;;;4898017;29;20072;-74
2023/08/04 11:34:34;;;;;;;12.32;6.80;;;34.10;90.20;;;;;;4911300;29;20032;-72
2023/08/04 11:37:00;;;;;;;12.93;6.53;;;33.90;89.90;;;;;;4918117;29;20440;-77
2023/08/04 11:39:28;;;;;;;10.52;6.38;;;34.10;90.60;;;;;;4917314;29;20029;-71
2023/08/04 11:41:54;;;;;;;13.30;6.53;;;34.10;90.40;;;;;;4916985;29;20024;-73
2023/08/04 11:44:21;;;;;;;10.63;6.60;;;34.20;91.50;;;;;;4917205;29;20035;-77
2023/08/04 11:46:47;;;;;;;11.85;6.57;;;33.90;90.60;;;;;;4917819;29;20024;-71
2023/08/04 11:49:14;;;;;;;9.02;5.80;;;34.10;91.80;;;;;;4917429;29;20503;-72
2023/08/04 11:51:44;;;;;;;11.07;6.65;;;34.00;99.90;;;;;;4917431;29;20036;-76
2023/08/04 11:54:25;;;;;;;11.70;6.53;;;34.10;90.80;;;;;;4916346;29;20091;-72
2023/08/04 11:56:55;;;;;;;12.23;6.10;;;34.30;92.40;;;;;;4915725;29;20107;-78
2023/08/04 11:59:21;;;;;;;12.18;6.03;;;34.10;91.40;;;;;;4916407;29;20027;-71
2023/08/04 12:01:47;;;;;;;11.45;6.82;;;33.60;90.30;;;;;;4917051;29;20024;-78
2023/08/04 12:04:24;;;;;;;12.65;7.25;;;33.80;91.70;;;;;;4913289;29;20043;-74
2023/08/04 12:07:01;;;;;;;10.75;6.40;;;33.90;90.60;;;;;;4917394;29;20047;-78
2023/08/04 12:09:27;;;;;;;11.32;6.30;;;33.80;91.10;;;;;;4915016;29;20402;-75
2023/08/04 12:11:53;;;;;;;11.90;6.82;;;33.90;92.00;;;;;;4915410;29;20058;-74
2023/08/04 12:14:22;;;;;;;12.25;7.20;;;33.80;92.20;;;;;;4913878;29;20508;-72
2023/08/04 12:16:52;;;;;;;13.38;7.97;;;33.80;90.80;;;;;;4916160;29;20039;-77
2023/08/04 12:19:25;;;;;;;11.87;7.23;;;33.90;91.00;;;;;;4915692;29;20028;-73
2023/08/04 12:21:54;;;;;;;10.07;7.68;;;33.90;91.50;;;;;;4914011;29;20052;-70
2023/08/04 12:24:22;;;;;;;11.88;7.57;;;33.80;90.70;;;;;;4899140;29;20024;-77
2023/08/04 12:26:48;;;;;;;13.20;8.02;;;33.60;91.50;;;;;;4910728;29;20119;-78
2023/08/04 12:29:14;;;;;;;13.35;7.88;;;33.80;91.50;;;;;;4906286;29;20028;-75
2023/08/04 12:31:40;;;;;;;11.98;8.32;;;34.00;90.30;;;;;;4915697;29;20042;-72
2023/08/04 12:34:08;;;;;;;13.65;8.18;;;34.10;91.60;;;;;;4916601;29;20024;-77
2023/08/04 12:36:34;;;;;;;12.48;8.45;;;33.60;91.00;;;;;;4915962;29;20095;-77
2023/08/04 12:39:03;;;;;;;10.43;7.95;;;34.20;90.60;;;;;;4916535;29;20067;-77
2023/08/04 12:41:31;;;;;;;17.52;8.50;;;34.20;90.00;;;;;;4915627;29;20035;-75
2023/08/04 12:43:57;;;;;;;10.85;7.90;;;34.20;90.60;;;;;;4916338;29;20150;-77
2023/08/04 12:46:26;;;;;;;11.23;7.68;;;34.30;90.70;;;;;;4916045;29;20115;-76
2023/08/04 12:48:55;;;;;;;11.60;7.68;;;34.20;91.20;;;;;;4915826;29;20076;-78